createdAt,value
2019-04-21T00:01:16.506Z,47.20
2019-04-21T00:03:53.323Z,47.30
2019-04-21T00:06:46.000Z,47.70
2019-04-21T00:09:20.521Z,47.50
2019-04-21T00:11:48.313Z,47.30
2019-04-21T00:14:11.415Z,47.80
2019-04-21T00:16:40.926Z,47.60
2019-04-21T00:19:09.088Z,47.50
2019-04-21T00:21:43.346Z,47.60
2019-04-21T00:24:23.940Z,47.60
2019-04-21T00:27:03.908Z,47.70
2019-04-21T00:29:38.533Z,47.70
2019-04-21T00:32:08.101Z,47.70
2019-04-21T00:34:21.877Z,47.70
2019-04-21T00:37:05.122Z,48.00
2019-04-21T00:42:18.439Z,48.90
2019-04-21T00:44:44.898Z,48.50
2019-04-21T00:47:27.860Z,48.80
2019-04-21T00:49:56.640Z,49.10
2019-04-21T00:52:45.628Z,49.10
2019-04-21T00:55:33.913Z,49.40
2019-04-21T00:57:57.382Z,49.00
2019-04-21T01:00:28.376Z,48.60
2019-04-21T01:03:01.916Z,49.50
2019-04-21T01:05:37.062Z,49.30
2019-04-21T01:08:04.688Z,49.20
2019-04-21T01:10:33.221Z,49.30
2019-04-21T01:13:16.902Z,48.80
2019-04-21T01:15:51.486Z,48.70
2019-04-21T01:18:16.720Z,49.90
2019-04-21T01:20:26.533Z,50.50
2019-04-21T01:22:57.805Z,51.20
2019-04-21T01:25:40.442Z,50.80
2019-04-21T01:28:21.374Z,51.20
2019-04-21T01:30:56.830Z,51.10
2019-04-21T01:33:33.425Z,50.80
2019-04-21T01:35:58.344Z,50.90
2019-04-21T01:38:36.926Z,51.30
2019-04-21T01:41:06.974Z,51.30
2019-04-21T01:43:36.559Z,51.30
2019-04-21T01:46:06.684Z,50.80
2019-04-21T01:48:34.162Z,51.00
2019-04-21T01:51:10.039Z,50.90
2019-04-21T01:54:07.631Z,50.90
2019-04-21T01:56:43.195Z,51.30
2019-04-21T01:59:03.482Z,52.30
2019-04-21T02:01:46.040Z,52.60
2019-04-21T02:04:26.973Z,52.90
2019-04-21T02:06:50.544Z,52.90
2019-04-21T02:09:23.193Z,52.90
2019-04-21T02:12:07.312Z,52.60
2019-04-21T02:14:31.516Z,52.30
2019-04-21T02:17:02.355Z,52.30
2019-04-21T02:19:29.948Z,52.50
2019-04-21T02:21:59.307Z,52.60
2019-04-21T02:24:42.733Z,52.70
2019-04-21T02:27:14.887Z,53.10
2019-04-21T02:29:51.965Z,53.80
2019-04-21T02:35:03.898Z,54.20
2019-04-21T02:37:41.666Z,55.00
2019-04-21T02:40:04.927Z,54.50
2019-04-21T02:42:39.509Z,53.80
2019-04-21T02:47:59.026Z,53.90
2019-04-21T02:50:11.890Z,54.40
2019-04-21T02:55:11.602Z,53.70
2019-04-21T02:57:49.455Z,53.20
2019-04-21T03:00:32.224Z,52.80
2019-04-21T03:05:48.756Z,53.60
2019-04-21T03:10:57.192Z,54.10
2019-04-21T03:16:04.973Z,54.50
2019-04-21T03:23:36.584Z,56.20
2019-04-21T03:26:16.489Z,56.60
2019-04-21T03:28:39.683Z,56.80
2019-04-21T03:41:18.887Z,58.50
2019-04-21T03:46:28.536Z,58.40
2019-04-21T03:49:00.776Z,58.60
2019-04-21T03:53:57.638Z,59.40
2019-04-21T04:01:41.079Z,61.40
2019-04-21T04:04:31.897Z,59.90
2019-04-21T04:07:08.885Z,60.60
2019-04-21T04:12:02.397Z,61.20
2019-04-21T04:14:42.459Z,61.20
2019-04-21T04:17:16.749Z,60.90
2019-04-21T04:19:39.299Z,61.50
2019-04-21T04:22:14.730Z,61.70
2019-04-21T04:27:26.201Z,61.00
2019-04-21T04:29:53.027Z,61.50
2019-04-21T04:32:23.192Z,61.20
2019-04-21T04:35:01.486Z,61.40
2019-04-21T04:40:07.307Z,63.80
2019-04-21T04:45:15.025Z,63.80
2019-04-21T04:47:36.331Z,64.60
2019-04-21T04:50:04.106Z,65.70
2019-04-21T04:52:38.408Z,66.00
2019-04-21T04:55:23.012Z,65.50
2019-04-21T05:00:28.348Z,65.00
2019-04-21T05:02:48.852Z,65.30
2019-04-21T05:08:01.640Z,66.10
2019-04-21T05:10:34.866Z,64.60
2019-04-21T05:12:56.933Z,65.20
2019-04-21T05:15:42.502Z,65.40
2019-04-21T05:17:57.688Z,65.40
2019-04-21T05:20:49.213Z,64.80
2019-04-21T05:23:02.618Z,63.90
2019-04-21T05:25:26.714Z,63.70
2019-04-21T05:27:56.718Z,63.40
2019-04-21T05:30:41.938Z,62.70
2019-04-21T05:33:34.458Z,64.10
2019-04-21T05:36:18.803Z,63.80
2019-04-21T05:39:02.515Z,62.80
2019-04-21T05:41:29.135Z,62.10
2019-04-21T05:44:13.214Z,61.50
2019-04-21T05:46:49.520Z,60.50
2019-04-21T05:49:20.496Z,60.20
2019-04-21T05:51:58.440Z,60.00
2019-04-21T05:54:44.110Z,60.00
2019-04-21T05:57:20.675Z,60.30
2019-04-21T05:59:43.586Z,60.20
2019-04-21T06:02:23.919Z,59.50
2019-04-21T06:07:25.778Z,59.00
2019-04-21T06:10:09.884Z,58.70
2019-04-21T06:12:29.783Z,58.70
2019-04-21T06:15:03.736Z,57.80
2019-04-21T06:17:34.804Z,57.60
2019-04-21T06:20:07.937Z,57.20
2019-04-21T06:22:36.045Z,57.20
2019-04-21T06:25:38.813Z,56.10
2019-04-21T06:27:40.358Z,56.70
2019-04-21T06:30:13.630Z,55.60
2019-04-21T06:35:52.944Z,56.30
2019-04-21T06:38:16.044Z,55.00
2019-04-21T06:40:50.067Z,54.00
2019-04-21T06:43:29.376Z,53.40
2019-04-21T06:45:53.644Z,52.90
2019-04-21T06:48:26.947Z,52.40
2019-04-21T06:50:52.597Z,52.10
2019-04-21T06:53:35.518Z,51.40
2019-04-21T06:55:52.225Z,51.70
2019-04-21T06:58:26.265Z,51.20
2019-04-21T07:00:56.384Z,49.30
2019-04-21T07:03:34.887Z,48.30
2019-04-21T07:06:08.063Z,47.90
2019-04-21T07:08:45.033Z,47.80
2019-04-21T07:11:12.024Z,47.60
2019-04-21T07:13:38.861Z,47.30
2019-04-21T07:16:18.755Z,47.30
2019-04-21T07:18:53.360Z,46.80
2019-04-21T07:21:25.426Z,46.90
2019-04-21T07:23:55.630Z,46.40
2019-04-21T07:26:25.502Z,46.70
2019-04-21T07:29:04.567Z,45.20
2019-04-21T07:31:31.892Z,45.40
2019-04-21T07:34:07.761Z,45.00
2019-04-21T07:36:41.165Z,44.40
2019-04-21T07:39:00.215Z,44.00
2019-04-21T07:41:31.003Z,43.80
2019-04-21T07:44:01.155Z,42.30
2019-04-21T07:46:31.415Z,43.30
2019-04-21T07:49:17.288Z,42.10
2019-04-21T07:51:56.560Z,42.10
2019-04-21T07:54:32.071Z,39.20
2019-04-21T07:56:40.900Z,39.20
2019-04-21T07:59:39.621Z,37.00
2019-04-21T08:02:20.219Z,37.80
2019-04-21T08:07:04.883Z,37.10
2019-04-21T08:09:40.950Z,37.70
2019-04-21T08:12:06.292Z,36.50
2019-04-21T08:14:43.940Z,37.00
2019-04-21T08:17:09.644Z,38.10
2019-04-21T08:19:42.809Z,37.70
2019-04-21T08:22:18.589Z,37.70
2019-04-21T08:24:50.846Z,37.80
2019-04-21T08:27:30.566Z,37.80
2019-04-21T08:29:54.460Z,38.00
2019-04-21T08:32:36.222Z,37.20
2019-04-21T08:35:25.366Z,38.00
2019-04-21T08:37:32.850Z,37.70
2019-04-21T08:42:33.117Z,36.60
2019-04-21T08:45:09.435Z,35.90
2019-04-21T08:47:39.706Z,34.80
2019-04-21T08:50:15.203Z,35.60
2019-04-21T08:52:50.973Z,36.10
2019-04-21T08:55:39.992Z,35.80
2019-04-21T08:58:30.839Z,35.30
2019-04-21T09:01:01.143Z,35.60
2019-04-21T09:03:52.082Z,35.40
2019-04-21T09:06:40.318Z,35.70
2019-04-21T09:08:57.714Z,35.40
2019-04-21T09:11:23.953Z,34.60
2019-04-21T09:14:03.015Z,34.80
2019-04-21T09:16:24.915Z,34.70
2019-04-21T09:18:59.795Z,34.60
2019-04-21T09:21:37.488Z,34.90
2019-04-21T09:24:13.375Z,35.60
2019-04-21T09:26:34.345Z,34.90
2019-04-21T09:29:06.630Z,34.40
2019-04-21T09:31:31.960Z,34.20
2019-04-21T09:34:01.162Z,33.60
2019-04-21T09:36:37.722Z,34.30
2019-04-21T09:39:09.161Z,34.10
2019-04-21T09:41:37.651Z,35.30
2019-04-21T09:44:13.677Z,35.00
2019-04-21T09:46:46.628Z,33.70
2019-04-21T09:49:15.641Z,34.50
2019-04-21T09:51:43.783Z,34.00
2019-04-21T09:54:21.246Z,34.40
2019-04-21T09:56:53.832Z,33.70
2019-04-21T09:59:26.282Z,33.00
2019-04-21T10:01:59.250Z,33.10
2019-04-21T10:04:23.272Z,30.30
2019-04-21T10:06:54.439Z,31.70
2019-04-21T10:09:26.325Z,32.20
2019-04-21T10:11:57.081Z,32.10
2019-04-21T10:14:28.690Z,30.60
2019-04-21T10:17:19.686Z,30.00
2019-04-21T10:19:50.666Z,31.20
2019-04-21T10:22:21.284Z,29.40
2019-04-21T10:24:52.188Z,29.90
2019-04-21T10:27:23.233Z,30.20
2019-04-21T10:29:54.003Z,30.20
2019-04-21T10:32:25.423Z,30.30
2019-04-21T10:34:57.008Z,28.50
2019-04-21T10:37:38.870Z,28.90
2019-04-21T10:40:00.115Z,29.50
2019-04-21T10:42:31.237Z,29.00
2019-04-21T10:45:03.203Z,28.80
2019-04-21T10:47:34.602Z,27.90
2019-04-21T10:50:08.779Z,27.20
2019-04-21T10:52:56.927Z,29.30
2019-04-21T10:55:53.561Z,27.50
2019-04-21T10:58:11.549Z,26.00
2019-04-21T11:00:54.161Z,26.30
2019-04-21T11:03:45.224Z,25.80
2019-04-21T11:06:18.788Z,26.80
2019-04-21T11:08:54.107Z,26.50
2019-04-21T11:11:22.232Z,25.40
2019-04-21T11:13:52.751Z,25.50
2019-04-21T11:16:23.525Z,24.90
2019-04-21T11:18:54.157Z,25.50
2019-04-21T11:21:24.993Z,23.90
2019-04-21T11:23:56.531Z,23.70
2019-04-21T11:26:27.618Z,23.80
2019-04-21T11:28:59.044Z,25.20
2019-04-21T11:31:29.629Z,24.30
2019-04-21T11:34:00.866Z,23.70
2019-04-21T11:36:31.666Z,23.90
2019-04-21T11:39:21.021Z,23.40
2019-04-21T11:41:39.459Z,22.40
2019-04-21T11:44:09.993Z,21.10
2019-04-21T11:46:40.472Z,22.50
2019-04-21T11:49:12.459Z,21.50
2019-04-21T11:51:43.287Z,21.60
2019-04-21T11:54:14.940Z,22.60
2019-04-21T11:56:45.592Z,23.50
2019-04-21T11:59:17.936Z,23.30
2019-04-21T12:01:49.684Z,24.10
2019-04-21T12:04:21.271Z,22.60
2019-04-21T12:06:52.869Z,22.50
2019-04-21T12:09:25.113Z,22.60
2019-04-21T12:11:56.980Z,22.80
2019-04-21T12:14:28.045Z,22.50
2019-04-21T12:16:59.338Z,21.60
2019-04-21T12:19:30.555Z,20.70
2019-04-21T12:22:11.026Z,20.80
2019-04-21T12:24:36.817Z,20.50
2019-04-21T12:27:07.882Z,21.20
2019-04-21T12:29:39.804Z,20.20
2019-04-21T12:32:28.376Z,20.90
2019-04-21T12:34:59.789Z,19.00
2019-04-21T12:37:30.951Z,18.60
2019-04-21T12:40:03.154Z,19.80
2019-04-21T12:42:34.548Z,20.60
2019-04-21T12:45:07.675Z,22.00
2019-04-21T12:47:38.164Z,22.80
2019-04-21T12:50:10.979Z,22.20
2019-04-21T12:52:41.973Z,23.50
2019-04-21T12:55:15.412Z,24.50
2019-04-21T12:57:46.036Z,25.10
2019-04-21T13:00:18.791Z,25.60
2019-04-21T13:02:49.812Z,25.80
2019-04-21T13:05:20.381Z,26.60
2019-04-21T13:07:51.230Z,27.20
2019-04-21T13:10:22.374Z,26.60
2019-04-21T13:12:54.137Z,26.10
2019-04-21T13:15:25.402Z,25.90
2019-04-21T13:17:56.376Z,26.00
2019-04-21T13:20:27.463Z,26.20
2019-04-21T13:22:58.110Z,26.90
2019-04-21T13:25:31.775Z,27.80
2019-04-21T13:28:03.349Z,28.70
2019-04-21T13:30:34.468Z,27.40
2019-04-21T13:33:05.139Z,25.10
2019-04-21T13:35:37.092Z,25.20
2019-04-21T13:38:18.699Z,26.20
2019-04-21T13:41:05.476Z,25.40
2019-04-21T13:43:23.123Z,23.80
2019-04-21T13:45:55.599Z,25.00
2019-04-21T13:48:26.467Z,26.60
2019-04-21T13:50:57.415Z,26.80
2019-04-21T13:53:28.588Z,25.10
2019-04-21T13:56:00.416Z,24.90
2019-04-21T13:58:32.663Z,23.70
2019-04-21T14:01:03.499Z,23.30
2019-04-21T14:03:35.384Z,24.60
2019-04-21T14:06:06.686Z,24.30
2019-04-21T14:08:40.185Z,24.40
2019-04-21T14:11:09.550Z,24.90
2019-04-21T14:13:40.590Z,24.90
2019-04-21T14:16:11.792Z,25.60
2019-04-21T14:18:42.675Z,25.50
2019-04-21T14:21:13.355Z,25.50
2019-04-21T14:23:47.549Z,25.20
2019-04-21T14:26:16.290Z,24.80
2019-04-21T14:28:47.257Z,24.80
2019-04-21T14:31:17.736Z,24.80
2019-04-21T14:33:48.225Z,26.20
2019-04-21T14:36:18.883Z,24.60
2019-04-21T14:38:50.431Z,24.50
2019-04-21T14:41:21.858Z,25.10
2019-04-21T14:43:52.956Z,24.70
2019-04-21T14:46:23.254Z,23.70
2019-04-21T14:49:13.088Z,21.90
2019-04-21T14:51:58.885Z,22.30
2019-04-21T14:54:29.341Z,21.50
2019-04-21T14:57:00.912Z,21.70
2019-04-21T14:59:33.119Z,20.90
2019-04-21T15:02:05.549Z,21.10
2019-04-21T15:04:37.595Z,20.90
2019-04-21T15:07:09.696Z,19.50
2019-04-21T15:09:41.532Z,19.50
2019-04-21T15:12:13.950Z,20.10
2019-04-21T15:14:44.649Z,19.40
2019-04-21T15:17:16.326Z,19.20
2019-04-21T15:19:53.911Z,19.20
2019-04-21T15:22:20.632Z,19.10
2019-04-21T15:24:52.136Z,19.20
2019-04-21T15:27:23.128Z,18.40
2019-04-21T15:29:53.685Z,18.50
2019-04-21T15:32:24.348Z,18.40
2019-04-21T15:34:56.057Z,17.80
2019-04-21T15:37:28.170Z,17.70
2019-04-21T15:40:11.297Z,16.90
2019-04-21T15:42:30.932Z,17.20
2019-04-21T15:45:02.821Z,17.40
2019-04-21T15:47:33.791Z,17.00
2019-04-21T15:50:10.204Z,17.00
2019-04-21T15:52:38.222Z,17.50
2019-04-21T15:55:10.779Z,18.60
2019-04-21T15:57:54.469Z,19.40
2019-04-21T16:00:44.655Z,19.20
2019-04-21T16:03:16.571Z,18.90
2019-04-21T16:05:47.013Z,18.90
2019-04-21T16:08:18.296Z,18.70
2019-04-21T16:10:54.678Z,18.30
2019-04-21T16:13:21.716Z,18.00
2019-04-21T16:15:52.630Z,18.20
2019-04-21T16:18:24.458Z,18.10
2019-04-21T16:20:55.773Z,18.60
2019-04-21T16:23:26.695Z,17.90
2019-04-21T16:25:57.194Z,18.20
2019-04-21T16:28:28.945Z,17.70
2019-04-21T16:31:00.499Z,17.50
2019-04-21T16:33:31.371Z,17.70
2019-04-21T16:36:02.116Z,17.80
2019-04-21T16:38:33.523Z,18.40
2019-04-21T16:41:07.028Z,18.80
2019-04-21T16:43:37.533Z,19.30
2019-04-21T16:46:08.857Z,20.00
2019-04-21T16:48:39.855Z,21.00
2019-04-21T16:51:10.522Z,21.80
2019-04-21T16:53:46.100Z,22.60
2019-04-21T16:56:24.826Z,22.90
2019-04-21T16:58:58.738Z,23.60
2019-04-21T17:01:31.759Z,24.60
2019-04-21T17:04:02.670Z,25.10
2019-04-21T17:06:33.310Z,25.70
2019-04-21T17:09:05.019Z,26.20
2019-04-21T17:11:38.024Z,26.60
2019-04-21T17:14:27.282Z,27.00
2019-04-21T17:17:04.001Z,27.40
2019-04-21T17:19:21.249Z,28.10
2019-04-21T17:21:45.717Z,28.40
2019-04-21T17:24:16.784Z,28.50
2019-04-21T17:26:48.216Z,29.00
2019-04-21T17:29:20.867Z,28.80
2019-04-21T17:31:51.441Z,29.80
2019-04-21T17:34:26.139Z,30.10
2019-04-21T17:36:55.039Z,30.20
2019-04-21T17:39:27.011Z,30.60
2019-04-21T17:42:11.653Z,30.70
2019-04-21T17:44:29.862Z,31.60
2019-04-21T17:47:03.887Z,31.80
2019-04-21T17:49:32.969Z,33.00
2019-04-21T17:52:11.755Z,33.00
2019-04-21T17:54:50.175Z,33.10
2019-04-21T17:57:36.655Z,34.60
2019-04-21T18:00:13.844Z,35.00
2019-04-21T18:02:43.369Z,35.30
2019-04-21T18:05:17.967Z,35.80
2019-04-21T18:07:41.946Z,36.60
2019-04-21T18:10:11.238Z,36.90
2019-04-21T18:12:41.410Z,37.50
2019-04-21T18:15:24.454Z,37.70
2019-04-21T18:17:36.584Z,38.20
2019-04-21T18:20:07.893Z,38.10
2019-04-21T18:22:44.196Z,38.20
2019-04-21T18:25:29.533Z,38.60
2019-04-21T18:27:52.317Z,38.40
2019-04-21T18:30:46.602Z,39.10
2019-04-21T18:33:27.197Z,39.60
2019-04-21T18:36:00.687Z,40.40
2019-04-21T18:38:57.005Z,39.50
2019-04-21T18:41:13.336Z,39.20
2019-04-21T18:44:15.490Z,39.70
2019-04-21T18:46:40.019Z,40.10
2019-04-21T18:49:00.666Z,40.20
2019-04-21T18:51:57.237Z,40.60
2019-04-21T18:54:39.189Z,41.20
2019-04-21T18:57:04.381Z,41.40
2019-04-21T18:59:31.391Z,40.80
2019-04-21T19:02:04.268Z,40.90
2019-04-21T19:04:33.471Z,41.20
2019-04-21T19:07:18.041Z,41.60
2019-04-21T19:10:09.827Z,41.30
2019-04-21T19:12:35.044Z,40.90
2019-04-21T19:14:54.816Z,40.80
2019-04-21T19:20:07.651Z,42.60
2019-04-21T19:22:34.198Z,43.00
2019-04-21T19:25:05.378Z,43.70
2019-04-21T19:27:40.249Z,43.40
2019-04-21T19:30:21.217Z,43.30
2019-04-21T19:32:41.300Z,43.50
2019-04-21T19:35:01.624Z,43.80
2019-04-21T19:37:45.218Z,44.00
2019-04-21T19:40:31.028Z,44.40
2019-04-21T19:42:55.684Z,44.80
2019-04-21T19:45:33.255Z,44.50
2019-04-21T19:48:08.072Z,44.30
2019-04-21T19:50:41.221Z,44.50
2019-04-21T19:53:03.404Z,45.50
2019-04-21T19:55:25.092Z,45.00
2019-04-21T19:57:56.673Z,44.50
2019-04-21T20:00:28.484Z,44.40
2019-04-21T20:03:00.812Z,44.60
2019-04-21T20:05:39.052Z,45.10
2019-04-21T20:08:22.234Z,45.70
2019-04-21T20:10:55.051Z,45.70
2019-04-21T20:13:42.112Z,46.20
2019-04-21T20:16:01.450Z,46.50
2019-04-21T20:18:26.188Z,47.20
2019-04-21T20:20:50.241Z,47.60
2019-04-21T20:23:27.714Z,47.70
2019-04-21T20:26:08.566Z,47.90
2019-04-21T20:28:49.275Z,48.50
2019-04-21T20:31:29.218Z,47.90
2019-04-21T20:34:05.118Z,47.80
2019-04-21T20:36:32.873Z,48.60
2019-04-21T20:39:01.099Z,48.90
2019-04-21T20:41:36.737Z,48.90
2019-04-21T20:44:11.963Z,48.80
2019-04-21T20:46:45.414Z,49.00
2019-04-21T20:49:15.381Z,49.50
2019-04-21T20:51:58.268Z,49.90
2019-04-21T20:54:24.552Z,50.10
2019-04-21T20:56:57.835Z,50.60
2019-04-21T20:59:25.073Z,50.70
2019-04-21T21:02:01.397Z,50.50
2019-04-21T21:04:27.985Z,50.70
2019-04-21T21:07:20.851Z,50.50
2019-04-21T21:09:41.355Z,50.50
2019-04-21T21:12:22.772Z,51.40
2019-04-21T21:14:42.162Z,51.60
2019-04-21T21:17:34.506Z,51.60
2019-04-21T21:19:57.925Z,51.70
2019-04-21T21:22:18.322Z,52.30
2019-04-21T21:24:55.853Z,52.70
2019-04-21T21:27:27.979Z,53.40
2019-04-21T21:30:03.010Z,53.80
2019-04-21T21:32:31.401Z,53.40
2019-04-21T21:35:07.986Z,53.80
2019-04-21T21:37:43.873Z,54.40
2019-04-21T21:40:14.285Z,53.70
2019-04-21T21:42:32.328Z,54.00
2019-04-21T21:45:06.124Z,54.50
2019-04-21T21:47:49.932Z,54.60
2019-04-21T21:50:11.554Z,54.80
2019-04-21T21:52:47.940Z,55.40
2019-04-21T21:55:09.798Z,55.70
2019-04-21T21:58:01.152Z,56.20
2019-04-21T22:00:27.994Z,56.20
2019-04-21T22:03:07.734Z,56.10
2019-04-21T22:05:37.490Z,56.50
2019-04-21T22:08:04.616Z,56.90
2019-04-21T22:10:36.899Z,57.20
2019-04-21T22:13:13.864Z,57.70
2019-04-21T22:15:42.078Z,58.10
2019-04-21T22:18:28.712Z,59.00
2019-04-21T22:21:02.857Z,58.60
2019-04-21T22:23:30.521Z,57.80
2019-04-21T22:25:51.426Z,57.90
2019-04-21T22:28:22.179Z,58.50
2019-04-21T22:30:54.938Z,58.70
2019-04-21T22:33:25.908Z,59.10
2019-04-21T22:36:04.415Z,59.20
2019-04-21T22:38:46.399Z,59.40
2019-04-21T22:41:12.986Z,59.20
2019-04-21T22:43:43.361Z,58.90
2019-04-21T22:46:12.454Z,58.80
2019-04-21T22:48:45.282Z,58.90
2019-04-21T22:51:26.609Z,58.80
2019-04-21T22:53:50.788Z,58.80
2019-04-21T22:56:28.607Z,59.10
2019-04-21T22:58:55.053Z,59.70
2019-04-21T23:01:33.393Z,60.40
2019-04-21T23:04:01.395Z,60.40
2019-04-21T23:06:33.750Z,61.20
2019-04-21T23:09:02.363Z,60.50
2019-04-21T23:11:37.493Z,60.70
2019-04-21T23:14:08.690Z,61.50
2019-04-21T23:16:41.862Z,62.00
2019-04-21T23:19:31.175Z,62.00
2019-04-21T23:22:03.878Z,62.10
2019-04-21T23:24:40.383Z,61.80
2019-04-21T23:27:02.662Z,61.70
2019-04-21T23:32:13.143Z,63.30
2019-04-21T23:34:36.136Z,64.00
2019-04-21T23:37:10.070Z,63.90
2019-04-21T23:39:37.048Z,63.60
2019-04-21T23:42:06.433Z,63.60
2019-04-21T23:44:43.382Z,63.40
2019-04-21T23:47:12.152Z,63.50
2019-04-21T23:49:51.125Z,63.80
2019-04-21T23:52:16.122Z,63.70
2019-04-21T23:54:47.354Z,63.90
2019-04-21T23:57:26.873Z,64.40
2019-04-21T23:59:55.094Z,64.80
